Time,TemperatureF,DewpointF,PressureIn,WindDirection,WindDirectionDegrees,WindSpeedMPH,WindSpeedGustMPH,Humidity,HourlyPrecipIn,Conditions,Clouds,dailyrainin,SoftwareType,DateUTC
2017-02-24 00:06:00,36.0,30.0,30.17,South,180,0.0,0.0,78,-99.99,,,-99.99,,2017-02-24 08:06:00,
2017-02-24 00:25:00,36.0,30.0,30.17,South,180,0.0,0.0,79,-99.99,,,-99.99,,2017-02-24 08:25:00,
2017-02-24 00:47:00,36.0,30.0,30.17,South,180,0.0,0.0,79,-99.99,,,-99.99,,2017-02-24 08:47:00,
2017-02-24 01:29:00,35.0,29.0,30.19,South,180,0.0,0.0,79,-99.99,,,-99.99,,2017-02-24 09:29:00,
2017-02-24 02:04:00,35.0,30.0,30.19,South,180,0.0,0.0,81,-99.99,,,-99.99,,2017-02-24 10:04:00,
2017-02-24 02:23:00,35.0,30.0,30.19,SSW,203,0.0,0.0,81,-99.99,,,-99.99,,2017-02-24 10:23:00,
2017-02-24 03:04:00,35.0,30.0,30.20,SSW,203,0.0,0.0,81,-99.99,,,-99.99,,2017-02-24 11:04:00,
2017-02-24 03:36:00,34.0,29.0,30.19,South,180,2.0,2.0,82,-99.99,,,-99.99,,2017-02-24 11:36:00,
2017-02-24 04:05:00,34.0,29.0,30.18,WSW,248,1.0,2.0,82,-99.99,,,-99.99,,2017-02-24 12:05:00,
2017-02-24 04:24:00,34.0,29.0,30.18,WSW,248,1.0,2.0,82,-99.99,,,-99.99,,2017-02-24 12:24:00,
2017-02-24 04:47:00,34.0,29.0,30.18,SSW,203,0.0,1.0,82,-99.99,,,-99.99,,2017-02-24 12:47:00,
2017-02-24 05:06:00,34.0,29.0,30.17,SW,225,0.0,0.0,82,-99.99,,,-99.99,,2017-02-24 13:06:00,
2017-02-24 05:23:00,34.0,29.0,30.17,SW,225,0.0,0.0,82,-99.99,,,-99.99,,2017-02-24 13:23:00,
2017-02-24 06:06:00,34.0,29.0,30.18,SSW,203,0.0,0.0,82,-99.99,,,-99.99,,2017-02-24 14:06:00,
2017-02-24 06:27:00,33.0,28.0,30.17,SW,225,0.0,0.0,82,-99.99,,,-99.99,,2017-02-24 14:27:00,
2017-02-24 06:54:00,33.0,28.0,30.18,SW,225,0.0,0.0,82,-99.99,,,-99.99,,2017-02-24 14:54:00,
2017-02-24 07:25:00,33.0,28.0,30.18,SW,225,0.0,0.0,82,-99.99,,,-99.99,,2017-02-24 15:25:00,
2017-02-24 07:45:00,33.0,28.0,30.20,SW,225,0.0,0.0,82,-99.99,,,-99.99,,2017-02-24 15:45:00,
2017-02-24 08:24:00,33.0,28.0,30.21,SSE,158,0.0,0.0,83,-99.99,,,-99.99,,2017-02-24 16:24:00,
2017-02-24 08:55:00,34.0,29.0,30.22,WSW,248,-999.9,-999.0,83,-99.99,,,-99.99,,2017-02-24 16:55:00,
2017-02-24 09:16:00,35.0,30.0,30.21,East,90,0.0,4.0,83,-99.99,,,-99.99,,2017-02-24 17:16:00,
2017-02-24 09:36:00,39.0,34.0,30.22,WSW,248,0.0,0.0,83,-99.99,,,-99.99,,2017-02-24 17:36:00,
2017-02-24 10:05:00,41.0,36.0,30.22,WNW,293,0.0,-999.0,82,-99.99,,,-99.99,,2017-02-24 18:05:00,
2017-02-24 10:25:00,43.0,37.0,30.23,North,0,2.0,2.0,78,-99.99,,,-99.99,,2017-02-24 18:25:00,
2017-02-24 10:47:00,44.0,36.0,30.23,NNE,23,0.0,2.0,74,-99.99,,,-99.99,,2017-02-24 18:47:00,
2017-02-24 11:05:00,44.0,36.0,30.23,NNE,23,0.0,2.0,74,-99.99,,,-99.99,,2017-02-24 19:05:00,
2017-02-24 11:24:00,47.0,38.0,30.22,North,0,0.0,3.0,71,-99.99,,,-99.99,,2017-02-24 19:24:00,
2017-02-24 12:14:00,51.0,39.0,30.21,NNE,23,5.0,-999.0,64,-99.99,,,-99.99,,2017-02-24 20:14:00,
2017-02-24 13:24:00,56.0,40.0,30.19,NNE,23,0.0,5.0,54,-99.99,,,-99.99,,2017-02-24 21:24:00,
2017-02-24 14:04:00,57.0,38.0,30.19,North,0,0.0,7.0,49,-99.99,,,-99.99,,2017-02-24 22:04:00,
2017-02-24 14:24:00,58.0,38.0,30.18,North,0,2.0,2.0,48,-99.99,,,-99.99,,2017-02-24 22:24:00,
2017-02-24 14:46:00,58.0,37.0,30.17,NNE,23,3.0,4.0,46,-99.99,,,-99.99,,2017-02-24 22:46:00,
2017-02-24 15:05:00,59.0,38.0,30.16,NNW,338,1.0,6.0,45,-99.99,,,-99.99,,2017-02-24 23:05:00,
2017-02-24 15:24:00,59.0,36.0,30.16,NNW,343,3.0,4.0,42,-99.99,,,-99.99,,2017-02-24 23:24:00,
2017-02-24 15:49:00,58.0,36.0,30.15,North,0,0.0,4.0,43,-99.99,,,-99.99,,2017-02-24 23:49:00,
2017-02-24 16:04:00,57.0,34.0,30.15,North,7,1.0,3.0,42,-99.99,,,-99.99,,2017-02-25 00:04:00,
2017-02-24 16:24:00,57.0,34.0,30.15,North,7,1.0,3.0,42,-99.99,,,-99.99,,2017-02-25 00:24:00,
2017-02-24 16:46:00,55.0,33.0,30.15,NNE,23,0.0,2.0,44,-99.99,,,-99.99,,2017-02-25 00:46:00,
2017-02-24 17:05:00,54.0,32.0,30.15,North,0,0.0,6.0,43,-99.99,,,-99.99,,2017-02-25 01:05:00,
2017-02-24 17:36:00,52.0,31.0,30.15,NNW,338,0.0,6.0,45,-99.99,,,-99.99,,2017-02-25 01:36:00,
2017-02-24 17:58:00,52.0,31.0,30.15,NNW,338,0.0,6.0,45,-99.99,,,-99.99,,2017-02-25 01:58:00,
2017-02-24 18:29:00,50.0,31.0,30.15,North,0,0.0,0.0,48,-99.99,,,-99.99,,2017-02-25 02:29:00,
2017-02-24 18:51:00,49.0,31.0,30.15,North,0,0.0,0.0,50,-99.99,,,-99.99,,2017-02-25 02:51:00,
2017-02-24 19:03:00,49.0,31.0,30.15,North,0,0.0,0.0,50,-99.99,,,-99.99,,2017-02-25 03:03:00,
2017-02-24 19:23:00,47.0,32.0,30.15,North,0,0.0,0.0,55,-99.99,,,-99.99,,2017-02-25 03:23:00,